sensor_id;sensor_type;location;lat;lon;timestamp;pressure;altitude;pressure_sealevel;temperature;humidity
76352;BME280;65179;47.786;19.138;2023-01-24T00:02:23;101697.53;;;3.85;87.46
76352;BME280;65179;47.786;19.138;2023-01-24T00:04:48;101694.25;;;3.81;87.62
76352;BME280;65179;47.786;19.138;2023-01-24T00:07:14;101689.19;;;3.69;87.68
76352;BME280;65179;47.786;19.138;2023-01-24T00:09:39;101695.84;;;3.65;87.80
76352;BME280;65179;47.786;19.138;2023-01-24T00:12:05;101690.91;;;3.70;87.66
76352;BME280;65179;47.786;19.138;2023-01-24T00:14:30;101689.47;;;3.75;87.81
76352;BME280;65179;47.786;19.138;2023-01-24T00:16:56;101690.00;;;3.79;87.86
76352;BME280;65179;47.786;19.138;2023-01-24T00:19:21;101693.44;;;3.81;87.85
76352;BME280;65179;47.786;19.138;2023-01-24T00:21:46;101695.81;;;3.84;87.82
76352;BME280;65179;47.786;19.138;2023-01-24T00:24:12;101690.59;;;3.73;87.82
76352;BME280;65179;47.786;19.138;2023-01-24T00:26:37;101703.63;;;3.68;87.73
76352;BME280;65179;47.786;19.138;2023-01-24T00:29:03;101698.81;;;3.62;88.04
76352;BME280;65179;47.786;19.138;2023-01-24T00:31:28;101698.81;;;3.62;88.02
76352;BME280;65179;47.786;19.138;2023-01-24T00:33:54;101696.84;;;3.45;87.96
76352;BME280;65179;47.786;19.138;2023-01-24T00:36:19;101707.16;;;3.49;88.14
76352;BME280;65179;47.786;19.138;2023-01-24T00:38:44;101703.34;;;3.52;88.15
76352;BME280;65179;47.786;19.138;2023-01-24T00:41:10;101709.31;;;3.46;88.22
76352;BME280;65179;47.786;19.138;2023-01-24T00:43:35;101719.75;;;3.49;88.10
76352;BME280;65179;47.786;19.138;2023-01-24T00:46:04;101711.28;;;3.44;88.23
76352;BME280;65179;47.786;19.138;2023-01-24T00:48:30;101711.56;;;3.41;88.14
76352;BME280;65179;47.786;19.138;2023-01-24T00:50:55;101718.06;;;3.38;88.08
76352;BME280;65179;47.786;19.138;2023-01-24T00:53:21;101723.84;;;3.34;88.32
76352;BME280;65179;47.786;19.138;2023-01-24T00:55:48;101723.56;;;3.37;88.18
76352;BME280;65179;47.786;19.138;2023-01-24T00:58:14;101722.88;;;3.35;88.42
76352;BME280;65179;47.786;19.138;2023-01-24T01:00:40;101728.50;;;3.32;88.31
76352;BME280;65179;47.786;19.138;2023-01-24T01:03:17;101727.25;;;3.26;88.38
76352;BME280;65179;47.786;19.138;2023-01-24T01:05:43;101723.03;;;3.33;88.32
76352;BME280;65179;47.786;19.138;2023-01-24T01:08:09;101727.25;;;3.26;88.14
76352;BME280;65179;47.786;19.138;2023-01-24T01:10:35;101731.63;;;3.18;88.24
76352;BME280;65179;47.786;19.138;2023-01-24T01:13:01;101724.13;;;3.12;88.16
76352;BME280;65179;47.786;19.138;2023-01-24T01:15:28;101732.44;;;3.08;88.41
76352;BME280;65179;47.786;19.138;2023-01-24T01:17:54;101735.56;;;3.14;88.26
76352;BME280;65179;47.786;19.138;2023-01-24T01:20:19;101738.69;;;3.09;88.29
76352;BME280;65179;47.786;19.138;2023-01-24T01:22:45;101739.78;;;3.06;88.25
76352;BME280;65179;47.786;19.138;2023-01-24T01:25:10;101738.78;;;3.07;88.21
76352;BME280;65179;47.786;19.138;2023-01-24T01:27:36;101742.03;;;3.01;88.23
76352;BME280;65179;47.786;19.138;2023-01-24T01:30:01;101744.47;;;3.04;88.20
76352;BME280;65179;47.786;19.138;2023-01-24T01:32:26;101746.44;;;3.02;88.24
76352;BME280;65179;47.786;19.138;2023-01-24T01:34:52;101744.47;;;3.04;88.30
76352;BME280;65179;47.786;19.138;2023-01-24T01:37:17;101750.38;;;3.08;88.22
76352;BME280;65179;47.786;19.138;2023-01-24T01:39:43;101753.91;;;3.08;88.47
76352;BME280;65179;47.786;19.138;2023-01-24T01:42:08;101749.97;;;3.13;88.53
76352;BME280;65179;47.786;19.138;2023-01-24T01:44:34;101755.63;;;3.10;88.89
76352;BME280;65179;47.786;19.138;2023-01-24T01:47:30;101747.69;;;3.08;88.82
76352;BME280;65179;47.786;19.138;2023-01-24T01:52:42;101758.84;;;3.03;89.04
76352;BME280;65179;47.786;19.138;2023-01-24T01:55:19;101758.13;;;3.01;88.94
76352;BME280;65179;47.786;19.138;2023-01-24T01:57:47;101750.38;;;2.98;89.04
76352;BME280;65179;47.786;19.138;2023-01-24T02:00:17;101754.19;;;3.05;88.73
76352;BME280;65179;47.786;19.138;2023-01-24T02:02:46;101765.47;;;2.99;88.93
76352;BME280;65179;47.786;19.138;2023-01-24T02:05:15;101760.22;;;2.88;88.95
76352;BME280;65179;47.786;19.138;2023-01-24T02:10:16;101765.06;;;2.94;88.83
76352;BME280;65179;47.786;19.138;2023-01-24T02:12:45;101768.87;;;2.92;88.95
76352;BME280;65179;47.786;19.138;2023-01-24T02:15:15;101772.97;;;2.96;88.96
76352;BME280;65179;47.786;19.138;2023-01-24T02:18:00;101769.16;;;2.98;88.78
76352;BME280;65179;47.786;19.138;2023-01-24T02:20:35;101775.66;;;2.96;88.78
76352;BME280;65179;47.786;19.138;2023-01-24T02:28:03;101779.72;;;2.90;88.63
76352;BME280;65179;47.786;19.138;2023-01-24T02:30:30;101780.97;;;2.86;88.61
76352;BME280;65179;47.786;19.138;2023-01-24T02:32:56;101770.53;;;2.83;88.69
76352;BME280;65179;47.786;19.138;2023-01-24T02:35:28;101773.63;;;2.79;88.87
76352;BME280;65179;47.786;19.138;2023-01-24T02:37:56;101763.72;;;2.70;89.14
76352;BME280;65179;47.786;19.138;2023-01-24T02:40:23;101768.75;;;2.63;89.48
76352;BME280;65179;47.786;19.138;2023-01-24T02:42:51;101775.81;;;2.64;89.65
76352;BME280;65179;47.786;19.138;2023-01-24T02:45:27;101768.75;;;2.63;89.65
76352;BME280;65179;47.786;19.138;2023-01-24T02:47:54;101772.41;;;2.62;89.63
76352;BME280;65179;47.786;19.138;2023-01-24T02:50:22;101775.81;;;2.64;89.83
76352;BME280;65179;47.786;19.138;2023-01-24T02:52:48;101765.22;;;2.63;90.09
76352;BME280;65179;47.786;19.138;2023-01-24T02:55:32;101765.09;;;2.64;90.29
76352;BME280;65179;47.786;19.138;2023-01-24T02:57:59;101768.50;;;2.66;90.09
76352;BME280;65179;47.786;19.138;2023-01-24T03:00:39;101777.13;;;2.70;89.99
76352;BME280;65179;47.786;19.138;2023-01-24T03:03:05;101776.88;;;2.73;89.83
76352;BME280;65179;47.786;19.138;2023-01-24T03:05:31;101775.59;;;2.77;89.66
76352;BME280;65179;47.786;19.138;2023-01-24T03:08:16;101773.59;;;2.69;89.81
76352;BME280;65179;47.786;19.138;2023-01-24T03:10:41;101785.97;;;2.61;90.03
76352;BME280;65179;47.786;19.138;2023-01-24T03:13:06;101780.47;;;2.62;90.04
76352;BME280;65179;47.786;19.138;2023-01-24T03:15:50;101781.16;;;2.64;90.17
76352;BME280;65179;47.786;19.138;2023-01-24T03:18:35;101781.16;;;2.64;90.09
76352;BME280;65179;47.786;19.138;2023-01-24T03:21:19;101782.87;;;2.65;89.97
76352;BME280;65179;47.786;19.138;2023-01-24T03:24:03;101789.97;;;2.66;89.90
76352;BME280;65179;47.786;19.138;2023-01-24T03:26:47;101794.88;;;2.61;89.97
76352;BME280;65179;47.786;19.138;2023-01-24T03:29:31;101792.19;;;2.61;90.04
76352;BME280;65179;47.786;19.138;2023-01-24T03:32:15;101786.81;;;2.61;90.06
76352;BME280;65179;47.786;19.138;2023-01-24T03:34:59;101791.66;;;2.67;89.86
76352;BME280;65179;47.786;19.138;2023-01-24T03:37:25;101791.06;;;2.64;89.82
76352;BME280;65179;47.786;19.138;2023-01-24T03:40:14;101809.13;;;2.62;89.88
76352;BME280;65179;47.786;19.138;2023-01-24T03:42:40;101799.78;;;2.56;89.98
76352;BME280;65179;47.786;19.138;2023-01-24T03:45:16;101806.84;;;2.57;90.13
76352;BME280;65179;47.786;19.138;2023-01-24T03:48:03;101806.41;;;2.52;90.22
76352;BME280;65179;47.786;19.138;2023-01-24T03:50:32;101805.44;;;2.53;90.19
76352;BME280;65179;47.786;19.138;2023-01-24T03:53:18;101806.41;;;2.52;90.11
76352;BME280;65179;47.786;19.138;2023-01-24T03:55:44;101801.88;;;2.53;90.09
76352;BME280;65179;47.786;19.138;2023-01-24T03:58:10;101801.44;;;2.48;90.29
76352;BME280;65179;47.786;19.138;2023-01-24T04:00:37;101801.28;;;2.49;90.38
76352;BME280;65179;47.786;19.138;2023-01-24T04:03:02;101806.66;;;2.49;90.45
76352;BME280;65179;47.786;19.138;2023-01-24T04:05:28;101812.16;;;2.48;90.56
76352;BME280;65179;47.786;19.138;2023-01-24T04:07:54;101801.97;;;2.42;90.62
76352;BME280;65179;47.786;19.138;2023-01-24T04:10:20;101804.78;;;2.40;90.62
76352;BME280;65179;47.786;19.138;2023-01-24T04:12:46;101805.06;;;2.37;90.78
76352;BME280;65179;47.786;19.138;2023-01-24T04:15:22;101807.59;;;2.39;90.75
76352;BME280;65179;47.786;19.138;2023-01-24T04:17:48;101807.72;;;2.37;90.83
76352;BME280;65179;47.786;19.138;2023-01-24T04:20:14;101810.41;;;2.37;90.89
76352;BME280;65179;47.786;19.138;2023-01-24T04:22:40;101810.25;;;2.39;90.77
76352;BME280;65179;47.786;19.138;2023-01-24T04:25:06;101813.22;;;2.36;90.84
76352;BME280;65179;47.786;19.138;2023-01-24T04:27:32;101817.19;;;2.41;90.64
76352;BME280;65179;47.786;19.138;2023-01-24T04:29:57;101808.44;;;2.39;90.93
76352;BME280;65179;47.786;19.138;2023-01-24T04:32:22;101808.03;;;2.44;90.74
76352;BME280;65179;47.786;19.138;2023-01-24T04:34:48;101811.84;;;2.41;90.85
76352;BME280;65179;47.786;19.138;2023-01-24T04:37:13;101805.50;;;2.42;90.82
76352;BME280;65179;47.786;19.138;2023-01-24T04:39:39;101817.19;;;2.41;90.93
76352;BME280;65179;47.786;19.138;2023-01-24T04:42:04;101815.22;;;2.43;90.88
76352;BME280;65179;47.786;19.138;2023-01-24T04:44:31;101817.06;;;2.43;90.77
76352;BME280;65179;47.786;19.138;2023-01-24T04:46:56;101810.97;;;2.41;90.81
76352;BME280;65179;47.786;19.138;2023-01-24T04:49:22;101817.19;;;2.41;90.91
76352;BME280;65179;47.786;19.138;2023-01-24T04:51:49;101822.56;;;2.41;90.85
76352;BME280;65179;47.786;19.138;2023-01-24T04:54:14;101825.25;;;2.41;90.89
76352;BME280;65179;47.786;19.138;2023-01-24T04:56:40;101818.06;;;2.42;90.82
76352;BME280;65179;47.786;19.138;2023-01-24T04:59:05;101818.06;;;2.42;90.76
76352;BME280;65179;47.786;19.138;2023-01-24T05:01:31;101822.56;;;2.41;90.93
76352;BME280;65179;47.786;19.138;2023-01-24T05:03:56;101817.47;;;2.38;91.00
76352;BME280;65179;47.786;19.138;2023-01-24T05:06:28;101827.94;;;2.41;90.93
76352;BME280;65179;47.786;19.138;2023-01-24T05:08:55;101826.09;;;2.42;90.83
76352;BME280;65179;47.786;19.138;2023-01-24T05:11:21;101824.53;;;2.39;91.06
76352;BME280;65179;47.786;19.138;2023-01-24T05:13:47;101825.63;;;2.37;91.21
76352;BME280;65179;47.786;19.138;2023-01-24T05:16:13;101833.13;;;2.43;90.98
76352;BME280;65179;47.786;19.138;2023-01-24T05:18:38;101832.56;;;2.39;90.94
76352;BME280;65179;47.786;19.138;2023-01-24T05:21:06;101835.25;;;2.39;90.97
76352;BME280;65179;47.786;19.138;2023-01-24T05:23:31;101842.31;;;2.40;90.96
76352;BME280;65179;47.786;19.138;2023-01-24T05:26:01;101834.69;;;2.36;90.99
76352;BME280;65179;47.786;19.138;2023-01-24T05:28:27;101844.28;;;2.38;90.95
76352;BME280;65179;47.786;19.138;2023-01-24T05:30:57;101836.66;;;2.34;91.00
76352;BME280;65179;47.786;19.138;2023-01-24T05:33:22;101848.47;;;2.31;91.10
76352;BME280;65179;47.786;19.138;2023-01-24T05:35:48;101851.41;;;2.28;91.04
76352;BME280;65179;47.786;19.138;2023-01-24T05:38:13;101854.09;;;2.28;90.99
76352;BME280;65179;47.786;19.138;2023-01-24T05:40:39;101849.44;;;2.30;90.95
76352;BME280;65179;47.786;19.138;2023-01-24T05:43:05;101851.41;;;2.28;90.83
76352;BME280;65179;47.786;19.138;2023-01-24T05:45:31;101854.84;;;2.19;91.21
76352;BME280;65179;47.786;19.138;2023-01-24T05:47:56;101859.41;;;2.18;91.42
76352;BME280;65179;47.786;19.138;2023-01-24T05:50:22;101855.72;;;2.19;91.55
76352;BME280;65179;47.786;19.138;2023-01-24T05:52:47;101861.75;;;2.12;91.86
76352;BME280;65179;47.786;19.138;2023-01-24T05:55:13;101860.59;;;2.14;91.77
76352;BME280;65179;47.786;19.138;2023-01-24T05:57:41;101863.03;;;2.17;91.50
76352;BME280;65179;47.786;19.138;2023-01-24T06:00:07;101859.78;;;2.14;91.61
76352;BME280;65179;47.786;19.138;2023-01-24T06:02:33;101860.75;;;2.13;91.69
76352;BME280;65179;47.786;19.138;2023-01-24T06:04:58;101867.22;;;2.10;91.57
76352;BME280;65179;47.786;19.138;2023-01-24T06:07:24;101868.94;;;2.11;91.49
76352;BME280;65179;47.786;19.138;2023-01-24T06:09:49;101866.38;;;2.10;91.51
76352;BME280;65179;47.786;19.138;2023-01-24T06:12:15;101874.16;;;2.13;91.32
76352;BME280;65179;47.786;19.138;2023-01-24T06:14:40;101871.47;;;2.13;91.41
76352;BME280;65179;47.786;19.138;2023-01-24T06:17:06;101871.47;;;2.13;91.65
76352;BME280;65179;47.786;19.138;2023-01-24T06:19:31;101872.47;;;2.12;91.76
76352;BME280;65179;47.786;19.138;2023-01-24T06:24:32;101879.78;;;2.10;91.65
76352;BME280;65179;47.786;19.138;2023-01-24T06:26:57;101874.28;;;2.11;91.61
76352;BME280;65179;47.786;19.138;2023-01-24T06:29:23;101881.59;;;2.09;91.52
76352;BME280;65179;47.786;19.138;2023-01-24T06:35:25;101891.47;;;2.09;91.90
76352;BME280;65179;47.786;19.138;2023-01-24T06:40:11;101892.19;;;2.11;91.71
76352;BME280;65179;47.786;19.138;2023-01-24T06:42:37;101894.28;;;2.07;91.91
76352;BME280;65179;47.786;19.138;2023-01-24T06:45:04;101901.59;;;2.05;92.05
76352;BME280;65179;47.786;19.138;2023-01-24T06:47:30;101911.47;;;2.05;91.98
76352;BME280;65179;47.786;19.138;2023-01-24T06:49:56;101905.72;;;2.09;91.85
76352;BME280;65179;47.786;19.138;2023-01-24T06:52:21;101903.91;;;2.10;91.79
76352;BME280;65179;47.786;19.138;2023-01-24T06:54:47;101905.09;;;2.06;91.96
76352;BME280;65179;47.786;19.138;2023-01-24T06:57:13;101907.53;;;2.09;91.95
76352;BME280;65179;47.786;19.138;2023-01-24T06:59:38;101911.06;;;2.09;91.84
76352;BME280;65179;47.786;19.138;2023-01-24T07:02:04;101912.75;;;2.10;92.00
76352;BME280;65179;47.786;19.138;2023-01-24T07:04:29;101912.66;;;2.12;92.01
76352;BME280;65179;47.786;19.138;2023-01-24T07:06:55;101903.47;;;2.14;92.09
76352;BME280;65179;47.786;19.138;2023-01-24T07:09:21;101906.81;;;2.07;92.41
76352;BME280;65179;47.786;19.138;2023-01-24T07:11:47;101909.69;;;2.15;92.24
76352;BME280;65179;47.786;19.138;2023-01-24T07:14:19;101907.03;;;2.15;92.26
76352;BME280;65179;47.786;19.138;2023-01-24T07:16:45;101916.97;;;2.24;91.83
76352;BME280;65179;47.786;19.138;2023-01-24T07:19:15;101910.19;;;2.20;92.08
76352;BME280;65179;47.786;19.138;2023-01-24T07:21:42;101915.53;;;2.20;92.40
76352;BME280;65179;47.786;19.138;2023-01-24T07:24:13;101914.28;;;2.24;92.62
76352;BME280;65179;47.786;19.138;2023-01-24T07:26:40;101916.44;;;2.30;92.44
76352;BME280;65179;47.786;19.138;2023-01-24T07:29:05;101911.69;;;2.34;92.39
76352;BME280;65179;47.786;19.138;2023-01-24T07:31:30;101924.97;;;2.35;92.60
76352;BME280;65179;47.786;19.138;2023-01-24T07:33:56;101922.75;;;2.40;92.24
76352;BME280;65179;47.786;19.138;2023-01-24T07:36:21;101922.47;;;2.43;92.55
76352;BME280;65179;47.786;19.138;2023-01-24T07:38:47;101930.97;;;2.48;92.37
76352;BME280;65179;47.786;19.138;2023-01-24T07:41:12;101927.59;;;2.46;92.67
76352;BME280;65179;47.786;19.138;2023-01-24T07:43:38;101923.50;;;2.52;92.48
76352;BME280;65179;47.786;19.138;2023-01-24T07:46:03;101922.16;;;2.57;92.24
76352;BME280;65179;47.786;19.138;2023-01-24T07:48:29;101922.75;;;2.61;92.18
76352;BME280;65179;47.786;19.138;2023-01-24T07:50:59;101927.00;;;2.63;92.40
76352;BME280;65179;47.786;19.138;2023-01-24T07:53:25;101931.63;;;2.61;92.71
76352;BME280;65179;47.786;19.138;2023-01-24T07:55:50;101926.59;;;2.68;92.44
76352;BME280;65179;47.786;19.138;2023-01-24T07:58:16;101935.69;;;2.76;92.35
76352;BME280;65179;47.786;19.138;2023-01-24T08:00:41;101942.22;;;2.83;92.33
76352;BME280;65179;47.786;19.138;2023-01-24T08:03:09;101934.34;;;2.91;92.13
76352;BME280;65179;47.786;19.138;2023-01-24T08:05:36;101938.78;;;3.02;91.95
76352;BME280;65179;47.786;19.138;2023-01-24T08:08:02;101935.88;;;3.15;91.63
76352;BME280;65179;47.786;19.138;2023-01-24T08:10:27;101933.09;;;3.26;91.57
76352;BME280;65179;47.786;19.138;2023-01-24T08:12:54;101933.97;;;3.36;91.45
76352;BME280;65179;47.786;19.138;2023-01-24T08:15:20;101928.66;;;3.45;91.09
76352;BME280;65179;47.786;19.138;2023-01-24T08:17:46;101931.69;;;3.61;90.89
76352;BME280;65179;47.786;19.138;2023-01-24T08:20:11;101937.19;;;3.69;90.55
76352;BME280;65179;47.786;19.138;2023-01-24T08:22:39;101936.09;;;3.81;90.40
76352;BME280;65179;47.786;19.138;2023-01-24T08:25:05;101942.59;;;3.89;90.23
76352;BME280;65179;47.786;19.138;2023-01-24T08:27:31;101937.81;;;4.02;89.87
76352;BME280;65179;47.786;19.138;2023-01-24T08:29:57;101949.16;;;4.15;89.47
76352;BME280;65179;47.786;19.138;2023-01-24T08:32:23;101951.13;;;4.22;89.12
76352;BME280;65179;47.786;19.138;2023-01-24T08:34:48;101955.37;;;4.25;88.65
76352;BME280;65179;47.786;19.138;2023-01-24T08:37:14;101950.28;;;4.31;88.91
76352;BME280;65179;47.786;19.138;2023-01-24T08:39:40;101944.63;;;4.34;88.10
76352;BME280;65179;47.786;19.138;2023-01-24T08:42:07;101949.72;;;4.37;87.98
76352;BME280;65179;47.786;19.138;2023-01-24T08:44:32;101951.25;;;4.40;87.78
76352;BME280;65179;47.786;19.138;2023-01-24T08:46:58;101953.69;;;4.43;87.62
76352;BME280;65179;47.786;19.138;2023-01-24T08:49:23;101962.19;;;4.48;87.48
76352;BME280;65179;47.786;19.138;2023-01-24T08:51:49;101960.19;;;4.50;87.46
76352;BME280;65179;47.786;19.138;2023-01-24T08:54:15;101964.12;;;4.55;87.41
76352;BME280;65179;47.786;19.138;2023-01-24T08:56:41;101963.88;;;4.58;87.32
76352;BME280;65179;47.786;19.138;2023-01-24T08:59:06;101964.16;;;4.65;87.01
76352;BME280;65179;47.786;19.138;2023-01-24T09:01:31;101956.47;;;4.70;86.97
76352;BME280;65179;47.786;19.138;2023-01-24T09:03:58;101962.13;;;4.77;86.59
76352;BME280;65179;47.786;19.138;2023-01-24T09:06:25;101964.97;;;4.85;86.51
76352;BME280;65179;47.786;19.138;2023-01-24T09:08:54;101969.75;;;4.91;86.01
76352;BME280;65179;47.786;19.138;2023-01-24T09:11:20;101975.69;;;5.04;85.31
76352;BME280;65179;47.786;19.138;2023-01-24T09:13:46;101971.63;;;5.27;84.55
76352;BME280;65179;47.786;19.138;2023-01-24T09:16:12;101972.87;;;5.69;82.56
76352;BME280;65179;47.786;19.138;2023-01-24T09:18:37;101975.56;;;5.96;81.60
76352;BME280;65179;47.786;19.138;2023-01-24T09:21:03;101983.44;;;6.07;80.71
76352;BME280;65179;47.786;19.138;2023-01-24T09:23:29;101978.31;;;6.14;79.79
76352;BME280;65179;47.786;19.138;2023-01-24T09:25:54;101978.47;;;6.30;79.69
76352;BME280;65179;47.786;19.138;2023-01-24T09:28:20;101977.75;;;6.46;78.67
76352;BME280;65179;47.786;19.138;2023-01-24T09:30:50;101976.78;;;6.90;78.40
76352;BME280;65179;47.786;19.138;2023-01-24T09:33:17;101969.91;;;7.47;74.06
76352;BME280;65179;47.786;19.138;2023-01-24T09:35:56;101970.03;;;8.29;72.63
76352;BME280;65179;47.786;19.138;2023-01-24T09:38:24;101967.31;;;8.93;71.81
76352;BME280;65179;47.786;19.138;2023-01-24T09:40:54;101963.81;;;9.48;69.08
76352;BME280;65179;47.786;19.138;2023-01-24T09:43:39;101957.62;;;9.70;65.74
76352;BME280;65179;47.786;19.138;2023-01-24T09:46:17;101964.16;;;9.53;65.86
76352;BME280;65179;47.786;19.138;2023-01-24T09:48:46;101955.84;;;9.54;65.96
76352;BME280;65179;47.786;19.138;2023-01-24T09:51:20;101958.06;;;9.43;66.03
76352;BME280;65179;47.786;19.138;2023-01-24T09:53:51;101961.81;;;9.42;65.96
76352;BME280;65179;47.786;19.138;2023-01-24T09:56:36;101959.47;;;9.31;67.12
76352;BME280;65179;47.786;19.138;2023-01-24T10:00:04;101957.81;;;9.05;66.00
76352;BME280;65179;47.786;19.138;2023-01-24T10:01:57;101947.00;;;8.89;67.68
76352;BME280;65179;47.786;19.138;2023-01-24T10:04:34;101946.66;;;8.84;66.98
76352;BME280;65179;47.786;19.138;2023-01-24T10:09:51;101948.22;;;8.79;68.35
76352;BME280;65179;47.786;19.138;2023-01-24T10:15:12;101932.84;;;9.34;66.00
76352;BME280;65179;47.786;19.138;2023-01-24T10:20:35;101936.31;;;9.59;63.21
76352;BME280;65179;47.786;19.138;2023-01-24T10:23:20;101935.53;;;10.12;61.53
76352;BME280;65179;47.786;19.138;2023-01-24T10:25:54;101928.37;;;10.64;61.75
76352;BME280;65179;47.786;19.138;2023-01-24T10:28:37;101925.41;;;10.51;60.23
76352;BME280;65179;47.786;19.138;2023-01-24T10:33:49;101925.72;;;10.56;60.89
76352;BME280;65179;47.786;19.138;2023-01-24T10:36:26;101917.53;;;10.79;60.50
76352;BME280;65179;47.786;19.138;2023-01-24T10:38:54;101917.16;;;10.82;59.88
76352;BME280;65179;47.786;19.138;2023-01-24T10:41:22;101912.69;;;10.29;59.72
76352;BME280;65179;47.786;19.138;2023-01-24T10:43:52;101910.47;;;10.32;61.49
76352;BME280;65179;47.786;19.138;2023-01-24T10:49:00;101896.12;;;11.27;58.93
76352;BME280;65179;47.786;19.138;2023-01-24T10:51:27;101896.94;;;11.57;57.29
76352;BME280;65179;47.786;19.138;2023-01-24T10:53:54;101893.97;;;12.45;56.02
76352;BME280;65179;47.786;19.138;2023-01-24T10:56:25;101892.88;;;12.67;54.06
76352;BME280;65179;47.786;19.138;2023-01-24T10:59:05;101889.94;;;13.17;53.70
76352;BME280;65179;47.786;19.138;2023-01-24T11:01:52;101877.34;;;13.57;51.67
76352;BME280;65179;47.786;19.138;2023-01-24T11:06:45;101868.66;;;13.06;51.27
76352;BME280;65179;47.786;19.138;2023-01-24T11:09:20;101864.53;;;13.10;50.69
76352;BME280;65179;47.786;19.138;2023-01-24T11:11:52;101856.59;;;12.94;50.40
76352;BME280;65179;47.786;19.138;2023-01-24T11:14:26;101851.09;;;12.87;49.65
76352;BME280;65179;47.786;19.138;2023-01-24T11:16:55;101851.41;;;12.99;51.30
76352;BME280;65179;47.786;19.138;2023-01-24T11:19:34;101851.72;;;12.13;51.63
76352;BME280;65179;47.786;19.138;2023-01-24T11:22:20;101845.50;;;11.77;52.58
76352;BME280;65179;47.786;19.138;2023-01-24T11:24:46;101846.50;;;11.90;52.49
76352;BME280;65179;47.786;19.138;2023-01-24T11:27:17;101840.03;;;12.12;52.79
76352;BME280;65179;47.786;19.138;2023-01-24T11:29:43;101837.91;;;11.93;53.27
76352;BME280;65179;47.786;19.138;2023-01-24T11:33:23;101841.41;;;11.37;54.63
76352;BME280;65179;47.786;19.138;2023-01-24T11:35:29;101833.75;;;11.40;54.82
76352;BME280;65179;47.786;19.138;2023-01-24T11:54:26;101826.06;;;10.86;55.19
76352;BME280;65179;47.786;19.138;2023-01-24T11:59:45;101827.97;;;10.33;56.57
76352;BME280;65179;47.786;19.138;2023-01-24T12:05:04;101815.84;;;10.58;56.39
76352;BME280;65179;47.786;19.138;2023-01-24T12:08:00;101816.59;;;10.52;56.49
76352;BME280;65179;47.786;19.138;2023-01-24T12:10:48;101820.44;;;10.58;57.08
76352;BME280;65179;47.786;19.138;2023-01-24T12:21:10;101817.09;;;11.00;57.66
76352;BME280;65179;47.786;19.138;2023-01-24T12:26:26;101810.25;;;10.89;54.91
76352;BME280;65179;47.786;19.138;2023-01-24T12:29:03;101811.81;;;10.98;54.61
76352;BME280;65179;47.786;19.138;2023-01-24T12:31:42;101820.06;;;11.34;54.61
76352;BME280;65179;47.786;19.138;2023-01-24T12:36:56;101817.84;;;11.94;53.14
76352;BME280;65179;47.786;19.138;2023-01-24T12:39:37;101820.72;;;11.72;50.20
76352;BME280;65179;47.786;19.138;2023-01-24T12:42:11;101820.50;;;12.09;52.88
76352;BME280;65179;47.786;19.138;2023-01-24T12:44:47;101810.31;;;12.17;53.65
76352;BME280;65179;47.786;19.138;2023-01-24T12:50:12;101804.75;;;12.26;51.98
76352;BME280;65179;47.786;19.138;2023-01-24T12:53:05;101803.31;;;12.08;51.97
76352;BME280;65179;47.786;19.138;2023-01-24T12:56:22;101803.88;;;11.83;52.09
76352;BME280;65179;47.786;19.138;2023-01-24T12:58:40;101800.78;;;11.86;53.51
76352;BME280;65179;47.786;19.138;2023-01-24T13:06:48;101795.97;;;11.16;54.60
76352;BME280;65179;47.786;19.138;2023-01-24T13:12:04;101798.50;;;11.18;54.97
76352;BME280;65179;47.786;19.138;2023-01-24T13:14:45;101798.53;;;11.03;54.14
76352;BME280;65179;47.786;19.138;2023-01-24T13:33:54;101800.78;;;10.85;54.67
76352;BME280;65179;47.786;19.138;2023-01-24T13:36:23;101799.37;;;11.04;55.16
76352;BME280;65179;47.786;19.138;2023-01-24T13:38:50;101794.31;;;10.86;53.63
76352;BME280;65179;47.786;19.138;2023-01-24T13:41:37;101802.66;;;10.85;54.46
76352;BME280;65179;47.786;19.138;2023-01-24T13:51:56;101801.44;;;11.02;55.75
76352;BME280;65179;47.786;19.138;2023-01-24T13:57:31;101793.47;;;10.86;52.69
76352;BME280;65179;47.786;19.138;2023-01-24T14:10:38;101791.69;;;10.78;53.30
76352;BME280;65179;47.786;19.138;2023-01-24T14:13:09;101797.69;;;10.74;53.67
76352;BME280;65179;47.786;19.138;2023-01-24T14:15:50;101798.06;;;10.71;54.21
76352;BME280;65179;47.786;19.138;2023-01-24T14:18:49;101794.03;;;10.66;54.18
76352;BME280;65179;47.786;19.138;2023-01-24T14:21:21;101794.12;;;10.58;54.22
76352;BME280;65179;47.786;19.138;2023-01-24T14:23:50;101799.81;;;10.49;54.91
76352;BME280;65179;47.786;19.138;2023-01-24T14:26:22;101800.56;;;10.43;55.22
76352;BME280;65179;47.786;19.138;2023-01-24T14:28:54;101798.47;;;10.30;55.38
76352;BME280;65179;47.786;19.138;2023-01-24T14:31:32;101808.47;;;10.15;55.50
76352;BME280;65179;47.786;19.138;2023-01-24T14:34:18;101809.50;;;10.06;55.37
76352;BME280;65179;47.786;19.138;2023-01-24T14:36:47;101811.03;;;9.86;55.99
76352;BME280;65179;47.786;19.138;2023-01-24T14:39:24;101812.41;;;9.82;56.89
76352;BME280;65179;47.786;19.138;2023-01-24T14:41:53;101805.72;;;9.70;56.90
76352;BME280;65179;47.786;19.138;2023-01-24T14:44:22;101807.81;;;9.60;57.55
76352;BME280;65179;47.786;19.138;2023-01-24T14:46:54;101807.34;;;9.56;58.03
76352;BME280;65179;47.786;19.138;2023-01-24T14:49:41;101821.44;;;9.52;57.87
76352;BME280;65179;47.786;19.138;2023-01-24T14:54:53;101825.44;;;9.25;59.05
76352;BME280;65179;47.786;19.138;2023-01-24T14:57:32;101820.59;;;9.12;60.86
76352;BME280;65179;47.786;19.138;2023-01-24T15:02:49;101819.31;;;8.92;61.22
76352;BME280;65179;47.786;19.138;2023-01-24T15:05:26;101820.69;;;8.88;61.50
76352;BME280;65179;47.786;19.138;2023-01-24T15:07:52;101819.72;;;8.73;63.10